Breu Branco, Brazil
Current Conditions -  °F | °C
As of 5:00 PM on Friday 21 Nov 2014 (Local Time) from SBTU Reporting Station
Broken Clouds Broken Clouds  
Wind Chill: 84°   Ceiling: 8000
Heat Index: 96°   Visibility: 6mi
Dew Point: 79°   Wind: 2mph
Humidity: 84%   Direction: 70°ENE
Pressure: 29.83"   Gusts: NA
Location:  4.07°S, 49.64°W
Report Text: SBTU 212000Z 07002KT 9999 FEW020 FEW022TCU BKN080 29/26 Q1010
Loading
Personal Weather Stations






























Interactive Weather Map New forecast layout! Learn more

10-Day Weather Forecast

Advertisements
Track Severe Weather on mobile